Time;durP1;ratioP1;P1;durP2;ratioP2;P2;SDS_P1;SDS_P2;PMS_P1;PMS_P2;Temp;Humidity;BMP_temperature;BMP_pressure;BME280_temperature;BME280_humidity;BME280_pressure;Samples;Min_cycle;Max_cycle;Signal;HPM_P1;HPM_P2
2023/12/14 00:01:29;;;;;;;;;;;8.80;99.90;;;;;;5022985;28;19993;-82
2023/12/14 00:03:56;;;;;;;;;;;8.80;99.90;;;;;;5019861;28;19988;-81
2023/12/14 00:06:23;;;;;;;;;;;8.80;99.90;;;;;;5019932;28;20328;-81
2023/12/14 00:08:51;;;;;;;;;;;8.80;99.90;;;;;;5005660;28;19930;-81
2023/12/14 00:11:17;;;;;;;;;;;8.80;99.90;;;;;;5019423;28;20377;-81
2023/12/14 00:13:44;;;;;;;;;;;8.80;99.90;;;;;;5019397;28;19926;-81
2023/12/14 00:16:11;;;;;;;;;;;8.80;99.90;;;;;;5019669;28;19925;-80
2023/12/14 00:18:38;;;;;;;;;;;8.90;99.90;;;;;;5018053;28;20380;-80
2023/12/14 00:21:05;;;;;;;;;;;8.90;99.90;;;;;;5024082;28;19926;-80
2023/12/14 00:23:32;;;;;;;;;;;8.90;99.90;;;;;;5016704;28;19932;-80
2023/12/14 00:26:00;;;;;;;;;;;8.90;99.90;;;;;;5012694;28;19925;-80
2023/12/14 00:28:27;;;;;;;;;;;8.90;99.90;;;;;;5013917;28;20443;-82
2023/12/14 00:30:53;;;;;;;;;;;8.90;99.90;;;;;;5019516;28;19926;-81
2023/12/14 00:33:20;;;;;;;;;;;8.90;99.90;;;;;;5018611;28;19929;-82
2023/12/14 00:35:47;;;;;;;;;;;8.90;99.90;;;;;;5019099;28;19925;-81
2023/12/14 00:38:14;;;;;;;;;;;8.90;99.90;;;;;;5018923;28;19926;-82
2023/12/14 00:40:40;;;;;;;;;;;8.90;99.90;;;;;;5017775;28;19972;-81
2023/12/14 00:43:09;;;;;;;;;;;8.90;99.90;;;;;;5018065;28;19926;-82
2023/12/14 00:45:35;;;;;;;;;;;8.80;99.90;;;;;;5014882;28;19933;-80
2023/12/14 00:48:02;;;;;;;;;;;8.80;99.90;;;;;;5001112;28;19926;-80
2023/12/14 00:50:29;;;;;;;;;;;8.80;99.90;;;;;;5018275;28;19925;-80
2023/12/14 00:52:55;;;;;;;;;;;8.80;99.90;;;;;;5016749;28;19980;-80
2023/12/14 00:55:22;;;;;;;;;;;8.80;99.90;;;;;;5017121;28;19952;-79
2023/12/14 00:57:49;;;;;;;;;;;8.80;99.90;;;;;;5016657;28;19926;-79
2023/12/14 01:00:18;;;;;;;;;;;8.80;99.90;;;;;;5016623;28;19929;-79
2023/12/14 01:02:44;;;;;;;;;;;8.80;99.90;;;;;;5016816;28;19929;-81
2023/12/14 01:05:11;;;;;;;;;;;8.80;99.90;;;;;;5018719;28;20333;-80
2023/12/14 01:07:38;;;;;;;;;;;8.80;99.90;;;;;;5020445;28;19926;-81
2023/12/14 01:10:05;;;;;;;;;;;8.80;99.90;;;;;;5021254;28;19925;-81
2023/12/14 01:12:32;;;;;;;;;;;8.80;99.90;;;;;;5021292;28;19925;-81
2023/12/14 01:14:59;;;;;;;;;;;8.70;99.90;;;;;;5014888;28;20452;-82
2023/12/14 01:17:28;;;;;;;;;;;8.70;99.90;;;;;;5018958;28;19929;-79
2023/12/14 01:19:55;;;;;;;;;;;8.80;99.90;;;;;;5018330;28;19930;-79
2023/12/14 01:22:22;;;;;;;;;;;8.70;99.90;;;;;;5018187;28;19929;-79
2023/12/14 01:24:49;;;;;;;;;;;8.80;99.90;;;;;;5007804;28;20348;-78
2023/12/14 01:27:15;;;;;;;;;;;8.70;99.90;;;;;;5010582;28;19925;-78
2023/12/14 01:29:42;;;;;;;;;;;8.70;99.90;;;;;;5014829;28;19972;-78
2023/12/14 01:32:09;;;;;;;;;;;8.70;99.90;;;;;;5016343;28;19980;-77
2023/12/14 01:34:37;;;;;;;;;;;8.60;99.90;;;;;;5019051;28;19925;-77
2023/12/14 01:37:04;;;;;;;;;;;8.40;99.90;;;;;;5016978;28;20343;-77
2023/12/14 01:39:31;;;;;;;;;;;8.30;99.90;;;;;;5014636;28;20339;-78
2023/12/14 01:41:58;;;;;;;;;;;8.30;99.90;;;;;;5013984;28;19925;-77
2023/12/14 01:44:24;;;;;;;;;;;8.20;99.90;;;;;;4999686;28;19925;-77
2023/12/14 01:46:51;;;;;;;;;;;8.20;99.90;;;;;;5013994;28;20356;-77
2023/12/14 01:49:18;;;;;;;;;;;8.20;99.90;;;;;;5014251;28;19979;-77
2023/12/14 01:51:46;;;;;;;;;;;8.20;99.90;;;;;;5000206;28;19929;-79
2023/12/14 01:54:13;;;;;;;;;;;8.10;99.90;;;;;;5013382;28;19926;-79
2023/12/14 01:56:40;;;;;;;;;;;8.10;99.90;;;;;;5014198;28;19929;-80
2023/12/14 01:59:06;;;;;;;;;;;8.00;99.90;;;;;;5013787;28;20071;-79
2023/12/14 02:01:37;;;;;;;;;;;8.00;99.90;;;;;;5014738;28;19925;-79
2023/12/14 02:04:06;;;;;;;;;;;8.00;99.90;;;;;;5014506;28;19925;-79
2023/12/14 02:06:33;;;;;;;;;;;8.00;99.90;;;;;;5014146;28;19969;-80
2023/12/14 02:09:01;;;;;;;;;;;8.00;99.90;;;;;;5014294;28;19925;-80
2023/12/14 02:11:27;;;;;;;;;;;7.90;99.90;;;;;;5015511;28;19976;-80
2023/12/14 02:13:54;;;;;;;;;;;7.90;99.90;;;;;;5015239;28;19932;-80
2023/12/14 02:16:21;;;;;;;;;;;7.90;99.90;;;;;;5015264;28;19984;-80
2023/12/14 02:18:48;;;;;;;;;;;7.80;99.90;;;;;;5015718;28;19925;-81
2023/12/14 02:21:15;;;;;;;;;;;7.80;99.90;;;;;;5015338;28;19925;-81
2023/12/14 02:23:45;;;;;;;;;;;7.80;99.90;;;;;;5015530;28;19929;-81
2023/12/14 02:26:12;;;;;;;;;;;7.80;99.90;;;;;;4998408;28;19930;-82
2023/12/14 02:28:38;;;;;;;;;;;7.80;99.90;;;;;;5009310;28;20567;-81
2023/12/14 02:31:05;;;;;;;;;;;7.80;99.90;;;;;;5025081;28;20324;-80
2023/12/14 02:33:32;;;;;;;;;;;7.70;99.90;;;;;;5019865;28;19925;-80
2023/12/14 02:36:00;;;;;;;;;;;7.70;99.90;;;;;;5015164;28;19925;-81
2023/12/14 02:38:26;;;;;;;;;;;7.60;99.90;;;;;;5016186;28;19929;-81
2023/12/14 02:40:55;;;;;;;;;;;7.60;99.90;;;;;;5016170;28;19980;-81
2023/12/14 02:43:23;;;;;;;;;;;7.60;99.90;;;;;;5014288;28;19929;-79
2023/12/14 02:45:50;;;;;;;;;;;7.60;99.90;;;;;;5013385;28;19926;-80
2023/12/14 02:48:17;;;;;;;;;;;7.50;99.90;;;;;;5020329;28;19972;-80
2023/12/14 02:50:43;;;;;;;;;;;7.60;99.90;;;;;;5014150;28;19925;-79
2023/12/14 02:53:10;;;;;;;;;;;7.60;99.90;;;;;;5014650;28;19926;-78
2023/12/14 02:55:37;;;;;;;;;;;7.60;99.90;;;;;;5013736;28;20388;-78
2023/12/14 02:58:05;;;;;;;;;;;7.50;99.90;;;;;;5013202;28;19972;-80
2023/12/14 03:00:32;;;;;;;;;;;7.50;99.90;;;;;;5013667;28;19929;-79
2023/12/14 03:02:58;;;;;;;;;;;7.40;99.90;;;;;;5012670;28;20419;-78
2023/12/14 03:05:25;;;;;;;;;;;7.30;99.90;;;;;;4999346;28;19926;-78
2023/12/14 03:07:52;;;;;;;;;;;7.30;99.90;;;;;;5007636;28;19930;-78
2023/12/14 03:10:19;;;;;;;;;;;7.30;99.90;;;;;;5015519;28;19972;-77
2023/12/14 03:12:45;;;;;;;;;;;7.30;99.90;;;;;;5016650;28;19933;-77
2023/12/14 03:15:13;;;;;;;;;;;7.20;99.90;;;;;;5013457;28;19926;-78
2023/12/14 03:17:40;;;;;;;;;;;7.20;99.90;;;;;;5014316;28;19971;-79
2023/12/14 03:20:08;;;;;;;;;;;7.20;99.90;;;;;;5014504;28;19926;-79
2023/12/14 03:22:34;;;;;;;;;;;7.30;99.90;;;;;;5009866;28;20392;-80
2023/12/14 03:25:01;;;;;;;;;;;7.30;99.90;;;;;;5013731;28;19926;-80
2023/12/14 03:27:28;;;;;;;;;;;7.30;99.90;;;;;;5015800;28;19980;-80
2023/12/14 03:29:55;;;;;;;;;;;7.30;99.90;;;;;;5014954;28;19933;-79
2023/12/14 03:32:23;;;;;;;;;;;7.30;99.90;;;;;;5016187;28;19925;-80
2023/12/14 03:34:50;;;;;;;;;;;7.30;99.90;;;;;;5017426;28;19925;-78
2023/12/14 03:37:16;;;;;;;;;;;7.20;99.90;;;;;;5012810;28;19930;-78
2023/12/14 03:39:43;;;;;;;;;;;7.10;99.90;;;;;;5017225;28;20312;-80
2023/12/14 03:42:10;;;;;;;;;;;7.20;99.90;;;;;;5016126;28;19932;-80
2023/12/14 03:44:37;;;;;;;;;;;7.10;99.90;;;;;;5007741;28;19972;-79
2023/12/14 03:47:03;;;;;;;;;;;7.10;99.90;;;;;;5014728;28;19926;-81
2023/12/14 03:49:32;;;;;;;;;;;7.10;99.90;;;;;;5006023;28;19937;-81
2023/12/14 03:51:59;;;;;;;;;;;7.00;99.90;;;;;;5015184;28;19931;-80
2023/12/14 03:54:25;;;;;;;;;;;7.00;99.90;;;;;;5015603;28;19926;-82
2023/12/14 03:56:52;;;;;;;;;;;7.00;99.90;;;;;;5016049;28;19933;-81
2023/12/14 03:59:19;;;;;;;;;;;7.00;99.90;;;;;;5015588;28;19926;-81
2023/12/14 04:01:46;;;;;;;;;;;7.00;99.90;;;;;;5014896;28;19961;-80
2023/12/14 04:04:13;;;;;;;;;;;6.90;99.90;;;;;;5015868;28;19925;-81
2023/12/14 04:06:41;;;;;;;;;;;6.90;99.90;;;;;;5015344;28;19949;-81
2023/12/14 04:09:07;;;;;;;;;;;6.90;99.90;;;;;;5014116;28;19972;-81
2023/12/14 04:11:34;;;;;;;;;;;6.90;99.90;;;;;;5013303;28;19925;-79
2023/12/14 04:14:01;;;;;;;;;;;6.80;99.90;;;;;;5016005;28;19925;-80
2023/12/14 04:16:28;;;;;;;;;;;6.80;99.90;;;;;;5014420;28;19925;-80
2023/12/14 04:18:56;;;;;;;;;;;6.90;99.90;;;;;;5014348;28;19930;-81
2023/12/14 04:21:22;;;;;;;;;;;6.90;99.90;;;;;;5015392;28;19936;-80
2023/12/14 04:23:51;;;;;;;;;;;6.90;99.90;;;;;;5014823;28;19997;-79
2023/12/14 04:26:17;;;;;;;;;;;6.80;99.90;;;;;;5014670;28;19932;-81
2023/12/14 04:28:45;;;;;;;;;;;6.70;99.90;;;;;;5014119;28;20377;-81
2023/12/14 04:31:12;;;;;;;;;;;6.70;99.90;;;;;;5014423;28;19929;-81
2023/12/14 04:33:39;;;;;;;;;;;6.70;99.90;;;;;;5013671;28;19929;-79
2023/12/14 04:36:07;;;;;;;;;;;6.60;99.90;;;;;;5013761;28;19925;-81
2023/12/14 04:38:34;;;;;;;;;;;6.60;99.90;;;;;;5012388;28;19977;-81
2023/12/14 04:41:02;;;;;;;;;;;6.60;99.90;;;;;;5011646;28;20626;-80
2023/12/14 04:43:30;;;;;;;;;;;6.60;99.90;;;;;;5016225;28;19930;-81
2023/12/14 04:45:57;;;;;;;;;;;6.70;99.90;;;;;;5021809;28;19932;-81
2023/12/14 04:48:24;;;;;;;;;;;6.70;99.90;;;;;;5028461;28;19926;-79
2023/12/14 04:50:50;;;;;;;;;;;6.70;99.90;;;;;;5019553;28;19925;-80
2023/12/14 04:53:17;;;;;;;;;;;6.70;99.90;;;;;;5016357;28;19925;-80
2023/12/14 04:55:44;;;;;;;;;;;6.70;99.90;;;;;;5007176;28;20380;-80
2023/12/14 04:58:12;;;;;;;;;;;6.70;99.90;;;;;;5018915;28;19980;-81
2023/12/14 05:00:39;;;;;;;;;;;6.70;99.90;;;;;;5018203;28;19933;-80
2023/12/14 05:03:06;;;;;;;;;;;6.70;99.90;;;;;;5019954;28;19926;-82
2023/12/14 05:05:33;;;;;;;;;;;6.60;99.90;;;;;;5014807;28;19929;-82
2023/12/14 05:08:00;;;;;;;;;;;6.70;99.90;;;;;;5019191;28;19953;-82
2023/12/14 05:10:27;;;;;;;;;;;6.60;99.90;;;;;;5019082;28;19926;-81
2023/12/14 05:12:53;;;;;;;;;;;6.70;99.90;;;;;;5018974;28;19930;-81
2023/12/14 05:15:22;;;;;;;;;;;6.70;99.90;;;;;;5019522;28;20304;-82
2023/12/14 05:17:48;;;;;;;;;;;6.70;99.90;;;;;;5018452;28;19971;-81
2023/12/14 05:20:15;;;;;;;;;;;6.70;99.90;;;;;;5018205;28;20361;-81
2023/12/14 05:22:43;;;;;;;;;;;6.60;99.90;;;;;;5018335;28;19940;-81
2023/12/14 05:25:09;;;;;;;;;;;6.70;99.90;;;;;;5018969;28;20315;-81
2023/12/14 05:27:36;;;;;;;;;;;6.60;99.90;;;;;;5018812;28;19949;-81
2023/12/14 05:30:03;;;;;;;;;;;6.70;99.90;;;;;;5018973;28;19929;-80
2023/12/14 05:32:32;;;;;;;;;;;6.70;99.90;;;;;;5010833;28;19926;-80
2023/12/14 05:34:59;;;;;;;;;;;6.70;99.90;;;;;;5018422;28;19937;-81
2023/12/14 05:37:26;;;;;;;;;;;6.70;99.90;;;;;;5013200;28;19929;-80
2023/12/14 05:39:53;;;;;;;;;;;6.60;99.90;;;;;;5021520;28;20424;-80
2023/12/14 05:42:19;;;;;;;;;;;6.60;99.90;;;;;;5017877;28;19948;-80
2023/12/14 05:44:46;;;;;;;;;;;6.60;99.90;;;;;;5018241;28;19929;-81
2023/12/14 05:47:13;;;;;;;;;;;6.60;99.90;;;;;;5017678;28;20355;-79
2023/12/14 05:49:43;;;;;;;;;;;6.60;99.90;;;;;;5017627;28;20280;-80
2023/12/14 05:52:10;;;;;;;;;;;6.60;99.90;;;;;;5015694;28;20009;-80
2023/12/14 05:54:36;;;;;;;;;;;6.60;99.90;;;;;;5013251;28;19925;-77
2023/12/14 05:57:03;;;;;;;;;;;6.60;99.90;;;;;;5016246;28;19934;-78
2023/12/14 05:59:30;;;;;;;;;;;6.60;99.90;;;;;;5005734;28;19929;-78
2023/12/14 06:01:57;;;;;;;;;;;6.60;99.90;;;;;;5017028;28;19949;-81
2023/12/14 06:04:24;;;;;;;;;;;6.70;99.90;;;;;;5018969;28;19992;-80
2023/12/14 06:06:52;;;;;;;;;;;6.70;99.90;;;;;;5014546;28;20451;-80
2023/12/14 06:09:24;;;;;;;;;;;6.70;99.90;;;;;;5012934;28;19996;-78
2023/12/14 06:11:51;;;;;;;;;;;6.70;99.90;;;;;;5009849;28;19957;-77
2023/12/14 06:14:18;;;;;;;;;;;6.70;99.90;;;;;;5018424;28;20304;-77
2023/12/14 06:16:45;;;;;;;;;;;6.70;99.90;;;;;;5017240;28;19929;-79
2023/12/14 06:19:12;;;;;;;;;;;6.70;99.90;;;;;;4999009;28;19940;-77
2023/12/14 06:21:38;;;;;;;;;;;6.70;99.90;;;;;;5016030;28;19957;-82
2023/12/14 06:24:07;;;;;;;;;;;6.70;99.90;;;;;;5017496;28;19926;-78
2023/12/14 06:26:34;;;;;;;;;;;6.60;99.90;;;;;;5020864;28;19936;-80
2023/12/14 06:29:00;;;;;;;;;;;6.70;99.90;;;;;;5017126;28;19953;-79
2023/12/14 06:31:27;;;;;;;;;;;6.60;99.90;;;;;;5014726;28;19925;-78
2023/12/14 06:33:54;;;;;;;;;;;6.60;99.90;;;;;;5009265;28;19933;-77
2023/12/14 06:36:21;;;;;;;;;;;6.60;99.90;;;;;;5009074;28;19934;-78
2023/12/14 06:38:47;;;;;;;;;;;6.60;99.90;;;;;;5010088;28;19925;-76
2023/12/14 06:41:21;;;;;;;;;;;6.70;99.90;;;;;;5008193;28;19926;-73
2023/12/14 06:43:47;;;;;;;;;;;6.60;99.90;;;;;;5006888;28;20369;-73
2023/12/14 06:46:14;;;;;;;;;;;6.60;99.90;;;;;;5009158;28;19929;-73
2023/12/14 06:48:41;;;;;;;;;;;6.60;99.90;;;;;;5006988;28;20384;-73
2023/12/14 06:51:08;;;;;;;;;;;6.60;99.90;;;;;;5008105;28;20380;-73
2023/12/14 06:53:35;;;;;;;;;;;6.30;99.90;;;;;;5008546;28;20323;-73
2023/12/14 06:56:02;;;;;;;;;;;6.20;99.90;;;;;;5012422;28;20296;-73
2023/12/14 06:58:31;;;;;;;;;;;6.10;99.90;;;;;;5010808;28;19979;-73
2023/12/14 07:00:58;;;;;;;;;;;6.00;99.90;;;;;;5010797;28;19925;-72
2023/12/14 07:03:25;;;;;;;;;;;5.90;99.90;;;;;;5014789;28;19971;-73
2023/12/14 07:05:52;;;;;;;;;;;5.90;99.90;;;;;;5011440;28;20396;-74
2023/12/14 07:08:18;;;;;;;;;;;5.90;99.90;;;;;;5009173;28;19934;-73
2023/12/14 07:10:45;;;;;;;;;;;5.80;99.90;;;;;;5009842;28;20396;-75
2023/12/14 07:13:12;;;;;;;;;;;5.80;99.90;;;;;;5009835;28;19926;-74
2023/12/14 07:15:40;;;;;;;;;;;5.80;99.90;;;;;;5008897;28;19967;-73
2023/12/14 07:18:15;;;;;;;;;;;5.80;99.90;;;;;;5005818;28;19925;-73
2023/12/14 07:20:42;;;;;;;;;;;5.80;99.90;;;;;;5010594;28;19925;-74
2023/12/14 07:23:09;;;;;;;;;;;5.70;99.90;;;;;;5009416;28;19947;-74
2023/12/14 07:25:36;;;;;;;;;;;5.80;99.90;;;;;;5009367;28;20458;-74
2023/12/14 07:28:02;;;;;;;;;;;5.70;99.90;;;;;;4998659;28;19972;-73
2023/12/14 07:30:29;;;;;;;;;;;5.80;99.90;;;;;;5003938;28;19980;-74
2023/12/14 07:32:57;;;;;;;;;;;5.80;99.90;;;;;;4999220;28;19926;-74
2023/12/14 07:35:24;;;;;;;;;;;5.90;99.90;;;;;;5004256;28;20004;-75
2023/12/14 07:37:51;;;;;;;;;;;6.00;99.90;;;;;;4999909;28;20405;-75
2023/12/14 07:40:18;;;;;;;;;;;6.00;99.90;;;;;;5007319;28;19941;-75
2023/12/14 07:42:44;;;;;;;;;;;6.00;99.90;;;;;;5001849;28;20401;-75
2023/12/14 07:45:11;;;;;;;;;;;6.00;99.90;;;;;;4999332;28;20602;-75
2023/12/14 07:47:42;;;;;;;;;;;6.00;99.90;;;;;;5001234;28;19973;-75
2023/12/14 07:50:10;;;;;;;;;;;6.10;99.90;;;;;;4998960;28;20017;-75
2023/12/14 07:52:37;;;;;;;;;;;6.10;99.90;;;;;;5009951;28;19929;-75
2023/12/14 07:55:04;;;;;;;;;;;6.10;99.90;;;;;;5001225;28;19925;-75
2023/12/14 07:57:31;;;;;;;;;;;6.10;99.90;;;;;;4995647;28;19956;-74
2023/12/14 07:59:58;;;;;;;;;;;6.10;99.90;;;;;;5010019;28;20311;-75
2023/12/14 08:02:25;;;;;;;;;;;6.10;99.90;;;;;;5006844;28;19933;-75
2023/12/14 08:04:53;;;;;;;;;;;6.10;99.90;;;;;;5012065;28;20600;-73
2023/12/14 08:07:21;;;;;;;;;;;6.20;99.90;;;;;;5005817;28;19992;-73
2023/12/14 08:09:47;;;;;;;;;;;6.20;99.90;;;;;;5004949;28;20393;-77
2023/12/14 08:12:14;;;;;;;;;;;6.30;99.90;;;;;;5010093;28;19988;-73
2023/12/14 08:14:43;;;;;;;;;;;6.20;99.90;;;;;;5010811;28;20384;-73
2023/12/14 08:17:10;;;;;;;;;;;6.20;99.90;;;;;;5008440;28;19932;-75
2023/12/14 08:19:37;;;;;;;;;;;6.10;99.90;;;;;;5012437;28;20024;-71
2023/12/14 08:22:03;;;;;;;;;;;6.10;99.90;;;;;;5004007;28;19929;-74
2023/12/14 08:24:32;;;;;;;;;;;6.00;99.90;;;;;;5011345;28;19925;-75
2023/12/14 08:26:58;;;;;;;;;;;6.00;99.90;;;;;;5011597;28;19925;-75
2023/12/14 08:29:25;;;;;;;;;;;6.00;99.90;;;;;;5016465;28;19926;-75
2023/12/14 08:31:53;;;;;;;;;;;6.00;99.90;;;;;;5002040;28;19961;-74
2023/12/14 08:34:20;;;;;;;;;;;6.00;99.90;;;;;;5013212;28;20047;-74
2023/12/14 08:36:46;;;;;;;;;;;6.10;99.90;;;;;;5009777;28;19965;-76
2023/12/14 08:39:13;;;;;;;;;;;6.10;99.90;;;;;;5010095;28;19933;-76
2023/12/14 08:41:42;;;;;;;;;;;6.10;99.90;;;;;;5013227;28;19925;-75
2023/12/14 08:44:08;;;;;;;;;;;6.20;99.90;;;;;;5013029;28;20027;-75
2023/12/14 08:46:41;;;;;;;;;;;6.80;99.90;;;;;;5005977;28;19929;-75
2023/12/14 08:49:08;;;;;;;;;;;7.50;99.90;;;;;;5011851;28;19926;-75
2023/12/14 08:51:35;;;;;;;;;;;8.50;99.90;;;;;;5015481;28;19983;-72
2023/12/14 08:54:02;;;;;;;;;;;8.10;99.90;;;;;;5011953;28;19971;-71
2023/12/14 08:56:28;;;;;;;;;;;7.80;99.90;;;;;;5012997;28;19934;-74
2023/12/14 08:58:57;;;;;;;;;;;7.60;99.90;;;;;;5009568;28;19934;-75
2023/12/14 09:01:24;;;;;;;;;;;7.60;99.90;;;;;;5009503;28;20488;-75
2023/12/14 09:03:51;;;;;;;;;;;7.50;99.90;;;;;;5012430;28;19925;-74
2023/12/14 09:06:18;;;;;;;;;;;7.30;99.90;;;;;;5011000;28;19925;-73
2023/12/14 09:08:45;;;;;;;;;;;7.30;99.90;;;;;;5012836;28;20400;-72
2023/12/14 09:11:11;;;;;;;;;;;7.30;99.90;;;;;;5011594;28;19925;-73
2023/12/14 09:13:38;;;;;;;;;;;7.30;99.90;;;;;;5011790;28;19969;-73
2023/12/14 09:16:07;;;;;;;;;;;7.30;99.90;;;;;;5012722;28;19934;-73
2023/12/14 09:18:33;;;;;;;;;;;7.20;99.90;;;;;;5012657;28;19930;-73
2023/12/14 09:21:00;;;;;;;;;;;7.10;99.90;;;;;;5010175;28;19933;-74
2023/12/14 09:23:27;;;;;;;;;;;7.20;99.90;;;;;;5010197;28;19965;-73
2023/12/14 09:25:55;;;;;;;;;;;7.10;99.90;;;;;;5007407;28;19925;-73
2023/12/14 09:28:22;;;;;;;;;;;7.20;99.90;;;;;;4999371;28;20546;-73
2023/12/14 09:30:49;;;;;;;;;;;7.20;99.90;;;;;;5007217;28;19999;-73
2023/12/14 09:33:17;;;;;;;;;;;7.20;99.90;;;;;;5005868;28;19984;-73
2023/12/14 09:35:44;;;;;;;;;;;7.20;99.90;;;;;;5014339;28;19926;-74
2023/12/14 09:38:13;;;;;;;;;;;7.20;99.90;;;;;;5012308;28;19933;-73
2023/12/14 09:40:40;;;;;;;;;;;7.20;99.90;;;;;;5013462;28;19925;-73
2023/12/14 09:43:08;;;;;;;;;;;7.20;99.90;;;;;;5003738;28;19929;-73
2023/12/14 09:45:36;;;;;;;;;;;7.20;99.90;;;;;;5009863;28;20373;-75
2023/12/14 09:48:03;;;;;;;;;;;7.30;99.90;;;;;;5007723;28;19926;-75
2023/12/14 09:50:31;;;;;;;;;;;7.30;99.90;;;;;;5012171;28;19931;-74
2023/12/14 09:52:58;;;;;;;;;;;7.30;99.90;;;;;;5010610;28;19925;-74
2023/12/14 09:55:25;;;;;;;;;;;7.30;99.90;;;;;;5013580;28;19973;-75
2023/12/14 09:57:52;;;;;;;;;;;7.30;99.90;;;;;;5014579;28;19933;-76
2023/12/14 10:00:33;;;;;;;;;;;7.40;99.90;;;;;;5009188;28;19969;-77
2023/12/14 10:03:18;;;;;;;;;;;7.40;99.90;;;;;;5000911;28;19926;-76
2023/12/14 10:05:46;;;;;;;;;;;7.40;99.90;;;;;;5007050;28;19925;-76
2023/12/14 10:08:13;;;;;;;;;;;7.30;99.90;;;;;;5001146;28;20676;-76
2023/12/14 10:10:40;;;;;;;;;;;7.40;99.90;;;;;;5008570;28;19980;-76
2023/12/14 10:13:06;;;;;;;;;;;7.40;99.90;;;;;;5012395;28;20103;-75
2023/12/14 10:15:42;;;;;;;;;;;7.50;99.90;;;;;;5005216;28;20300;-75
2023/12/14 10:18:10;;;;;;;;;;;7.60;99.90;;;;;;5010475;28;19925;-76
2023/12/14 10:20:37;;;;;;;;;;;7.70;99.90;;;;;;5013167;28;19938;-76
2023/12/14 10:23:06;;;;;;;;;;;7.80;99.90;;;;;;5012251;28;19925;-75
2023/12/14 10:25:33;;;;;;;;;;;7.80;99.90;;;;;;5010678;28;19925;-74
2023/12/14 10:28:02;;;;;;;;;;;7.80;99.90;;;;;;5011365;28;19948;-74
2023/12/14 10:30:30;;;;;;;;;;;7.80;99.90;;;;;;5010492;28;20281;-73
2023/12/14 10:32:56;;;;;;;;;;;7.80;99.90;;;;;;5007709;28;19929;-74
2023/12/14 10:35:23;;;;;;;;;;;7.80;99.90;;;;;;5008543;28;19972;-74
2023/12/14 10:37:51;;;;;;;;;;;7.80;99.90;;;;;;5010153;28;20388;-74
2023/12/14 10:40:20;;;;;;;;;;;7.90;99.90;;;;;;5009300;28;19925;-74
2023/12/14 10:42:48;;;;;;;;;;;7.90;99.90;;;;;;5002773;28;19955;-74
2023/12/14 10:45:16;;;;;;;;;;;8.00;99.90;;;;;;5011091;28;19926;-74
2023/12/14 10:47:44;;;;;;;;;;;8.10;99.90;;;;;;5011425;28;19926;-77
2023/12/14 10:50:12;;;;;;;;;;;8.10;99.90;;;;;;5002310;28;19984;-80
2023/12/14 10:52:39;;;;;;;;;;;8.30;99.90;;;;;;5003898;28;20371;-76
2023/12/14 10:55:08;;;;;;;;;;;8.30;99.90;;;;;;5010341;28;19965;-82
2023/12/14 10:57:36;;;;;;;;;;;8.50;99.90;;;;;;5006802;28;19925;-80
2023/12/14 11:00:04;;;;;;;;;;;8.60;99.90;;;;;;5005849;28;19929;-78
2023/12/14 11:02:31;;;;;;;;;;;8.60;99.90;;;;;;5012751;28;19926;-83
2023/12/14 11:05:05;;;;;;;;;;;8.60;99.90;;;;;;5004105;28;19932;-75
2023/12/14 11:07:44;;;;;;;;;;;8.50;99.90;;;;;;5010956;28;19932;-74
2023/12/14 11:10:11;;;;;;;;;;;8.40;99.90;;;;;;5008768;28;20344;-76
2023/12/14 11:12:51;;;;;;;;;;;8.30;99.90;;;;;;5011609;28;19960;-77
2023/12/14 11:15:18;;;;;;;;;;;8.20;99.90;;;;;;5008228;28;19937;-75
2023/12/14 11:18:05;;;;;;;;;;;8.20;99.90;;;;;;5004968;28;19925;-80
2023/12/14 11:20:31;;;;;;;;;;;8.10;99.90;;;;;;5000165;28;19927;-76
2023/12/14 11:23:08;;;;;;;;;;;8.10;99.90;;;;;;5001950;28;19979;-76
2023/12/14 11:25:36;;;;;;;;;;;8.10;99.90;;;;;;5004841;28;20439;-76
2023/12/14 11:28:07;;;;;;;;;;;8.00;99.90;;;;;;5004646;28;19964;-76
2023/12/14 11:30:34;;;;;;;;;;;8.00;99.90;;;;;;5001793;28;19925;-77
2023/12/14 11:33:01;;;;;;;;;;;7.90;99.90;;;;;;5003000;28;19925;-75
2023/12/14 11:35:28;;;;;;;;;;;7.90;99.90;;;;;;5005634;28;19937;-76
2023/12/14 11:37:56;;;;;;;;;;;8.00;99.90;;;;;;5006826;28;19929;-79
2023/12/14 11:40:23;;;;;;;;;;;8.10;99.90;;;;;;5004939;28;19925;-75
2023/12/14 11:42:58;;;;;;;;;;;8.20;99.90;;;;;;5005822;28;20451;-73
2023/12/14 11:45:26;;;;;;;;;;;8.30;99.90;;;;;;5003512;28;19933;-77
2023/12/14 11:47:53;;;;;;;;;;;8.30;99.90;;;;;;5000634;28;19957;-75
2023/12/14 11:50:20;;;;;;;;;;;8.30;99.90;;;;;;5003192;28;20005;-75
2023/12/14 11:52:47;;;;;;;;;;;8.20;99.90;;;;;;5009255;28;19925;-75
2023/12/14 11:55:14;;;;;;;;;;;8.10;99.90;;;;;;5015368;28;19933;-75
2023/12/14 11:57:46;;;;;;;;;;;8.00;99.90;;;;;;5014101;28;19932;-76
2023/12/14 12:00:14;;;;;;;;;;;8.00;99.90;;;;;;5010348;28;19952;-76
2023/12/14 12:02:42;;;;;;;;;;;8.00;99.90;;;;;;5010978;28;19929;-75
2023/12/14 12:05:13;;;;;;;;;;;7.90;99.90;;;;;;5011189;28;20376;-76
2023/12/14 12:07:38;;;;;;;;;;;7.90;99.90;;;;;;5009072;28;19996;-75
2023/12/14 12:10:06;;;;;;;;;;;7.90;99.90;;;;;;5016645;28;19969;-75
2023/12/14 12:12:34;;;;;;;;;;;8.00;99.90;;;;;;5012408;28;20293;-75
2023/12/14 12:15:01;;;;;;;;;;;8.00;99.90;;;;;;5007651;28;19947;-76
2023/12/14 12:17:27;;;;;;;;;;;7.90;99.90;;;;;;5004786;28;19934;-75
2023/12/14 12:19:55;;;;;;;;;;;7.90;99.90;;;;;;5006082;28;19969;-75
2023/12/14 12:22:23;;;;;;;;;;;7.90;99.90;;;;;;5006115;28;19988;-75
2023/12/14 12:24:50;;;;;;;;;;;7.90;99.90;;;;;;5007662;28;19934;-71
2023/12/14 12:27:16;;;;;;;;;;;7.90;99.90;;;;;;5010005;28;19952;-73
2023/12/14 12:29:43;;;;;;;;;;;7.90;99.90;;;;;;5011339;28;19930;-72
2023/12/14 12:32:10;;;;;;;;;;;7.80;99.90;;;;;;5011681;28;19925;-72
2023/12/14 12:34:37;;;;;;;;;;;7.80;99.90;;;;;;5004630;28;19932;-71
2023/12/14 12:37:06;;;;;;;;;;;7.80;99.90;;;;;;5013869;28;19926;-71
2023/12/14 12:39:32;;;;;;;;;;;7.80;99.90;;;;;;5006672;28;19957;-71
2023/12/14 12:41:59;;;;;;;;;;;7.80;99.90;;;;;;5010420;28;20451;-70
2023/12/14 12:44:26;;;;;;;;;;;7.80;99.90;;;;;;5003994;28;19925;-71
2023/12/14 12:46:56;;;;;;;;;;;7.80;99.90;;;;;;4998493;28;20459;-71
2023/12/14 12:49:23;;;;;;;;;;;7.80;99.90;;;;;;5010877;28;19926;-70
2023/12/14 12:51:50;;;;;;;;;;;7.90;99.90;;;;;;5005037;28;20008;-71
2023/12/14 12:54:19;;;;;;;;;;;7.90;99.90;;;;;;5012536;28;20377;-72
2023/12/14 12:56:45;;;;;;;;;;;7.90;99.90;;;;;;5011366;28;19980;-71
2023/12/14 12:59:14;;;;;;;;;;;7.90;99.90;;;;;;5000157;28;19929;-71
2023/12/14 13:01:40;;;;;;;;;;;7.90;99.90;;;;;;5009103;28;19926;-71
2023/12/14 13:04:18;;;;;;;;;;;7.80;99.90;;;;;;5013736;28;19972;-71
2023/12/14 13:06:45;;;;;;;;;;;7.90;99.90;;;;;;5008800;28;19926;-71
2023/12/14 13:09:11;;;;;;;;;;;7.90;99.90;;;;;;4996642;28;20849;-71
2023/12/14 13:11:39;;;;;;;;;;;7.90;99.90;;;;;;5000968;28;20028;-71
2023/12/14 13:14:07;;;;;;;;;;;7.90;99.90;;;;;;5008809;28;19929;-70
2023/12/14 13:16:34;;;;;;;;;;;8.00;99.90;;;;;;5013183;28;19988;-71
2023/12/14 13:19:01;;;;;;;;;;;8.00;99.90;;;;;;5007097;28;19937;-71
2023/12/14 13:21:28;;;;;;;;;;;8.00;99.90;;;;;;4996955;28;20356;-71
2023/12/14 13:23:56;;;;;;;;;;;8.00;99.90;;;;;;5003832;28;19948;-71
2023/12/14 13:26:23;;;;;;;;;;;8.10;99.90;;;;;;5005841;28;20008;-71
2023/12/14 13:28:51;;;;;;;;;;;8.00;99.90;;;;;;5008215;28;20288;-71
2023/12/14 13:31:18;;;;;;;;;;;8.00;99.90;;;;;;5002161;28;20617;-71
2023/12/14 13:33:46;;;;;;;;;;;8.10;99.90;;;;;;5010115;28;20003;-69
2023/12/14 13:36:13;;;;;;;;;;;8.10;99.90;;;;;;5007277;28;19929;-71
2023/12/14 13:38:40;;;;;;;;;;;8.10;99.90;;;;;;5004998;28;19926;-74
2023/12/14 13:41:06;;;;;;;;;;;8.10;99.90;;;;;;4992970;28;19925;-69
2023/12/14 13:43:33;;;;;;;;;;;8.10;99.90;;;;;;4999411;28;20004;-72
2023/12/14 13:46:01;;;;;;;;;;;8.10;99.90;;;;;;4995405;28;19987;-72
2023/12/14 13:48:29;;;;;;;;;;;8.10;99.90;;;;;;4987757;28;20486;-71
2023/12/14 13:50:56;;;;;;;;;;;8.10;99.90;;;;;;4991232;28;19948;-72
2023/12/14 13:53:23;;;;;;;;;;;8.10;99.90;;;;;;4987494;28;20062;-70
2023/12/14 13:55:50;;;;;;;;;;;8.10;99.90;;;;;;4993559;28;19973;-71
2023/12/14 13:58:18;;;;;;;;;;;8.10;99.90;;;;;;4989437;28;19981;-72
2023/12/14 14:00:45;;;;;;;;;;;8.10;99.90;;;;;;4983909;28;20012;-73
2023/12/14 14:03:14;;;;;;;;;;;8.10;99.90;;;;;;4988885;28;20312;-71
2023/12/14 14:05:58;;;;;;;;;;;8.10;99.90;;;;;;5080528;27;19928;-72
2023/12/14 14:08:24;;;;;;;;;;;8.10;99.90;;;;;;5063729;28;19936;-72
2023/12/14 14:10:51;;;;;;;;;;;8.10;99.90;;;;;;5067085;28;20375;-72
2023/12/14 14:13:18;;;;;;;;;;;8.10;99.90;;;;;;5067009;28;19972;-72
2023/12/14 14:15:44;;;;;;;;;;;8.10;99.90;;;;;;5068510;28;21022;-73
2023/12/14 14:18:11;;;;;;;;;;;8.10;99.90;;;;;;5067218;28;19954;-74
2023/12/14 14:20:38;;;;;;;;;;;8.10;99.90;;;;;;5067991;28;19932;-72
2023/12/14 14:23:07;;;;;;;;;;;8.10;99.90;;;;;;5068236;28;19939;-74
2023/12/14 14:25:34;;;;;;;;;;;8.20;99.90;;;;;;5080251;28;19925;-71
2023/12/14 14:28:01;;;;;;;;;;;8.10;99.90;;;;;;5076064;28;20252;-72
2023/12/14 14:30:27;;;;;;;;;;;8.10;99.90;;;;;;5061748;28;19932;-72
2023/12/14 14:32:54;;;;;;;;;;;8.10;99.90;;;;;;5069355;28;19982;-72